WMT7M OKKK-OBBI
Flight info
| Callsign | WMT7M |
|---|---|
| Flight time | 0h 36m |
| Altitude | 27000 |
| Route | BOXIK B416 IMDOX P975 LONOS L703 KOBOK |
| Aircraft | A320/M-SDE3FGHIRWY/LB1 |
Departure
| Time | 2026-05-08 14:29 |
|---|---|
| Airport | Kuwait International Airport (OKKK) |
Arrival
| Time | 2026-05-08 15:06 |
|---|---|
| Airport | Bahrain International Airport (OBBI) |
| Time | Latitude | Longitude | Altitude | Speed | Heading |
|---|---|---|---|---|---|
| 2026-05-08 14:13 | 29.23543 | 47.96917 | 202 ft | 0 kts | 157° |
| 2026-05-08 14:19 | 29.23551 | 47.96913 | 204 ft | 3 kts | 157° |
| 2026-05-08 14:19 | 29.23567 | 47.96905 | 207 ft | 2 kts | 157° |
| 2026-05-08 14:20 | 29.23584 | 47.96901 | 203 ft | 3 kts | 217° |
| 2026-05-08 14:20 | 29.23592 | 47.96911 | 203 ft | 0 kts | 270° |
| 2026-05-08 14:24 | 29.23591 | 47.96905 | 194 ft | 4 kts | 259° |
| 2026-05-08 14:24 | 29.23586 | 47.96884 | 206 ft | 0 kts | 251° |
| 2026-05-08 14:24 | 29.23496 | 47.96776 | 207 ft | 27 kts | 179° |
| 2026-05-08 14:25 | 29.23379 | 47.96865 | 209 ft | 19 kts | 152° |
| 2026-05-08 14:25 | 29.23248 | 47.96936 | 208 ft | 22 kts | 155° |
| 2026-05-08 14:25 | 29.23101 | 47.97017 | 205 ft | 25 kts | 153° |
| 2026-05-08 14:25 | 29.22927 | 47.97046 | 215 ft | 26 kts | 186° |
| 2026-05-08 14:26 | 29.22755 | 47.97092 | 210 ft | 27 kts | 156° |
| 2026-05-08 14:26 | 29.22575 | 47.97184 | 212 ft | 29 kts | 155° |
| 2026-05-08 14:26 | 29.22387 | 47.97288 | 212 ft | 31 kts | 154° |
| 2026-05-08 14:26 | 29.22184 | 47.97395 | 215 ft | 33 kts | 155° |
| 2026-05-08 14:27 | 29.21962 | 47.97514 | 208 ft | 37 kts | 157° |
| 2026-05-08 14:27 | 29.21720 | 47.97643 | 212 ft | 41 kts | 154° |
| 2026-05-08 14:27 | 29.21496 | 47.97758 | 208 ft | 35 kts | 156° |
| 2026-05-08 14:27 | 29.21315 | 47.97852 | 211 ft | 24 kts | 155° |
| 2026-05-08 14:28 | 29.21249 | 47.97829 | 216 ft | 10 kts | 219° |
| 2026-05-08 14:28 | 29.21244 | 47.97756 | 212 ft | 10 kts | 285° |
| 2026-05-08 14:28 | 29.21280 | 47.97671 | 214 ft | 14 kts | 303° |
| 2026-05-08 14:28 | 29.21365 | 47.97597 | 210 ft | 18 kts | 330° |
| 2026-05-08 14:29 | 29.21653 | 47.97435 | 209 ft | 78 kts | 335° |
| 2026-05-08 14:29 | 29.22331 | 47.97073 | 214 ft | 134 kts | 335° |
| 2026-05-08 14:29 | 29.23314 | 47.96568 | 306 ft | 170 kts | 335° |
| 2026-05-08 14:29 | 29.24403 | 47.95947 | 854 ft | 177 kts | 335° |
| 2026-05-08 14:30 | 29.25515 | 47.95326 | 1469 ft | 179 kts | 334° |
| 2026-05-08 14:30 | 29.26649 | 47.94716 | 2177 ft | 176 kts | 336° |
| 2026-05-08 14:30 | 29.27747 | 47.94179 | 2973 ft | 168 kts | 338° |
| 2026-05-08 14:30 | 29.28847 | 47.93695 | 3529 ft | 175 kts | 341° |
| 2026-05-08 14:31 | 29.30057 | 47.93185 | 3838 ft | 200 kts | 339° |
| 2026-05-08 14:31 | 29.31428 | 47.92479 | 4119 ft | 228 kts | 334° |
| 2026-05-08 14:31 | 29.32933 | 47.91637 | 4535 ft | 253 kts | 338° |
| 2026-05-08 14:32 | 29.36523 | 47.91876 | 5939 ft | 281 kts | 29° |
| 2026-05-08 14:32 | 29.37949 | 47.93445 | 6681 ft | 291 kts | 58° |
| 2026-05-08 14:32 | 29.38923 | 47.95502 | 7482 ft | 296 kts | 62° |
| 2026-05-08 14:32 | 29.39897 | 47.97614 | 8278 ft | 302 kts | 62° |
| 2026-05-08 14:33 | 29.40894 | 47.99765 | 9071 ft | 308 kts | 62° |
| 2026-05-08 14:33 | 29.41862 | 48.01982 | 9842 ft | 314 kts | 69° |
| 2026-05-08 14:33 | 29.42385 | 48.05067 | 10349 ft | 336 kts | 92° |
| 2026-05-08 14:33 | 29.37314 | 48.14205 | 11967 ft | 364 kts | 138° |
| 2026-05-08 14:34 | 29.30494 | 48.22139 | 12034 ft | 357 kts | 137° |
| 2026-05-08 14:34 | 29.23608 | 48.30032 | 11935 ft | 355 kts | 137° |
| 2026-05-08 14:34 | 29.16719 | 48.37896 | 11858 ft | 351 kts | 137° |
| 2026-05-08 14:34 | 29.09860 | 48.45742 | 11895 ft | 345 kts | 137° |
| 2026-05-08 14:35 | 29.03020 | 48.53549 | 11986 ft | 343 kts | 137° |
| 2026-05-08 14:35 | 28.96163 | 48.61364 | 12022 ft | 348 kts | 137° |
| 2026-05-08 14:35 | 28.89294 | 48.69176 | 11973 ft | 351 kts | 137° |
| 2026-05-08 14:35 | 28.82406 | 48.76970 | 11881 ft | 350 kts | 137° |
| 2026-05-08 14:36 | 28.80572 | 48.79188 | 11943 ft | 349 kts | 129° |
| 2026-05-08 14:36 | 28.79262 | 48.81526 | 11952 ft | 351 kts | 120° |
| 2026-05-08 14:36 | 28.78087 | 48.83962 | 11951 ft | 351 kts | 120° |
| 2026-05-08 14:36 | 28.76906 | 48.86395 | 11951 ft | 351 kts | 120° |
| 2026-05-08 14:37 | 28.75718 | 48.88826 | 11952 ft | 351 kts | 120° |
| 2026-05-08 14:37 | 28.74528 | 48.91251 | 11954 ft | 351 kts | 121° |
| 2026-05-08 14:37 | 28.73334 | 48.93677 | 11954 ft | 351 kts | 121° |
| 2026-05-08 14:37 | 28.72141 | 48.96103 | 11949 ft | 351 kts | 120° |
| 2026-05-08 14:38 | 28.70943 | 48.98532 | 11953 ft | 352 kts | 121° |
| 2026-05-08 14:38 | 28.69744 | 49.00965 | 11954 ft | 352 kts | 121° |
| 2026-05-08 14:38 | 28.68547 | 49.03399 | 11954 ft | 352 kts | 120° |
| 2026-05-08 14:38 | 28.67351 | 49.05832 | 11952 ft | 352 kts | 121° |
| 2026-05-08 14:39 | 28.66154 | 49.08264 | 11952 ft | 352 kts | 121° |
| 2026-05-08 14:39 | 28.64957 | 49.10699 | 11949 ft | 352 kts | 121° |
| 2026-05-08 14:39 | 28.63758 | 49.13133 | 11951 ft | 352 kts | 120° |
| 2026-05-08 14:39 | 28.62558 | 49.15564 | 11951 ft | 352 kts | 121° |
| 2026-05-08 14:40 | 28.61356 | 49.17993 | 11951 ft | 352 kts | 121° |
| 2026-05-08 14:40 | 28.60152 | 49.20424 | 11951 ft | 353 kts | 120° |
| 2026-05-08 14:40 | 28.58821 | 49.22750 | 11949 ft | 352 kts | 131° |
| 2026-05-08 14:40 | 28.57098 | 49.24712 | 11952 ft | 350 kts | 143° |
| 2026-05-08 14:41 | 28.55061 | 49.26206 | 11952 ft | 348 kts | 155° |
| 2026-05-08 14:41 | 28.52897 | 49.27446 | 11951 ft | 348 kts | 155° |
| 2026-05-08 14:41 | 28.50775 | 49.28781 | 11951 ft | 350 kts | 148° |
| 2026-05-08 14:41 | 28.48884 | 49.30531 | 11947 ft | 351 kts | 140° |
| 2026-05-08 14:42 | 28.47049 | 49.32374 | 11950 ft | 353 kts | 141° |
| 2026-05-08 14:42 | 28.45204 | 49.34216 | 11955 ft | 353 kts | 140° |
| 2026-05-08 14:42 | 28.43357 | 49.36054 | 11955 ft | 353 kts | 141° |
| 2026-05-08 14:42 | 28.41509 | 49.37886 | 11952 ft | 352 kts | 141° |
| 2026-05-08 14:43 | 28.39664 | 49.39713 | 11953 ft | 352 kts | 141° |
| 2026-05-08 14:43 | 28.37821 | 49.41539 | 11952 ft | 352 kts | 141° |
| 2026-05-08 14:43 | 28.35976 | 49.43366 | 11954 ft | 352 kts | 141° |
| 2026-05-08 14:43 | 28.34131 | 49.45187 | 11954 ft | 352 kts | 142° |
| 2026-05-08 14:44 | 28.32282 | 49.47015 | 11950 ft | 353 kts | 141° |
| 2026-05-08 14:44 | 28.30434 | 49.48843 | 11949 ft | 352 kts | 141° |
| 2026-05-08 14:44 | 28.28587 | 49.50670 | 11951 ft | 352 kts | 141° |
| 2026-05-08 14:44 | 28.26741 | 49.52494 | 11949 ft | 351 kts | 141° |
| 2026-05-08 14:45 | 28.24899 | 49.54309 | 11952 ft | 351 kts | 142° |
| 2026-05-08 14:45 | 28.23054 | 49.56123 | 11952 ft | 351 kts | 142° |
| 2026-05-08 14:45 | 28.21198 | 49.57924 | 11953 ft | 351 kts | 143° |
| 2026-05-08 14:45 | 28.19291 | 49.59644 | 11957 ft | 350 kts | 145° |
| 2026-05-08 14:46 | 28.17349 | 49.61309 | 11957 ft | 350 kts | 146° |
| 2026-05-08 14:46 | 28.15397 | 49.62949 | 11957 ft | 350 kts | 146° |
| 2026-05-08 14:46 | 28.13441 | 49.64591 | 11956 ft | 350 kts | 146° |
| 2026-05-08 14:46 | 28.11491 | 49.66238 | 11956 ft | 350 kts | 146° |
| 2026-05-08 14:47 | 28.09548 | 49.67892 | 11955 ft | 349 kts | 146° |
| 2026-05-08 14:47 | 28.07609 | 49.69552 | 11958 ft | 349 kts | 145° |
| 2026-05-08 14:47 | 28.05675 | 49.71217 | 11952 ft | 349 kts | 145° |
| 2026-05-08 14:47 | 28.03730 | 49.72862 | 11958 ft | 349 kts | 147° |
| 2026-05-08 14:48 | 28.01748 | 49.74442 | 11962 ft | 349 kts | 148° |
| 2026-05-08 14:48 | 27.99743 | 49.75988 | 11958 ft | 349 kts | 148° |
| 2026-05-08 14:48 | 27.97731 | 49.77521 | 11961 ft | 349 kts | 149° |
| 2026-05-08 14:48 | 27.95717 | 49.79057 | 11962 ft | 349 kts | 148° |
| 2026-05-08 14:49 | 27.93706 | 49.80600 | 11962 ft | 349 kts | 148° |
| 2026-05-08 14:49 | 27.91703 | 49.82148 | 11960 ft | 349 kts | 147° |
| 2026-05-08 14:49 | 27.89705 | 49.83699 | 11964 ft | 347 kts | 148° |
| 2026-05-08 14:49 | 27.87717 | 49.85242 | 11966 ft | 346 kts | 147° |
| 2026-05-08 14:50 | 27.85734 | 49.86780 | 11963 ft | 346 kts | 148° |
| 2026-05-08 14:50 | 27.83751 | 49.88317 | 11963 ft | 345 kts | 148° |
| 2026-05-08 14:50 | 27.81775 | 49.89853 | 11963 ft | 345 kts | 147° |
| 2026-05-08 14:50 | 27.79794 | 49.91393 | 11962 ft | 345 kts | 147° |
| 2026-05-08 14:51 | 27.77814 | 49.92925 | 11960 ft | 345 kts | 148° |
| 2026-05-08 14:51 | 27.75830 | 49.94458 | 11962 ft | 345 kts | 147° |
| 2026-05-08 14:51 | 27.73847 | 49.95990 | 11963 ft | 346 kts | 147° |
| 2026-05-08 14:51 | 27.71864 | 49.97524 | 11959 ft | 345 kts | 147° |
| 2026-05-08 14:52 | 27.69885 | 49.99054 | 11963 ft | 345 kts | 148° |
| 2026-05-08 14:52 | 27.65929 | 50.02109 | 11962 ft | 344 kts | 147° |
| 2026-05-08 14:52 | 27.63953 | 50.03634 | 11962 ft | 344 kts | 148° |
| 2026-05-08 14:53 | 27.61976 | 50.05160 | 11960 ft | 344 kts | 148° |
| 2026-05-08 14:53 | 27.60002 | 50.06682 | 11961 ft | 344 kts | 147° |
| 2026-05-08 14:53 | 27.58023 | 50.08205 | 11963 ft | 344 kts | 148° |
| 2026-05-08 14:53 | 27.56020 | 50.09745 | 11961 ft | 344 kts | 147° |
| 2026-05-08 14:54 | 27.54065 | 50.11247 | 11963 ft | 346 kts | 147° |
| 2026-05-08 14:54 | 27.52049 | 50.12798 | 11962 ft | 346 kts | 148° |
| 2026-05-08 14:54 | 27.50092 | 50.14305 | 11956 ft | 332 kts | 147° |
| 2026-05-08 14:54 | 27.48234 | 50.15738 | 11953 ft | 315 kts | 147° |
| 2026-05-08 14:55 | 27.46465 | 50.17103 | 11955 ft | 300 kts | 148° |
| 2026-05-08 14:55 | 27.44783 | 50.18402 | 11953 ft | 287 kts | 147° |
| 2026-05-08 14:55 | 27.43188 | 50.19662 | 11952 ft | 274 kts | 147° |
| 2026-05-08 14:55 | 27.41678 | 50.20884 | 11953 ft | 261 kts | 146° |
| 2026-05-08 14:56 | 27.40243 | 50.22055 | 11954 ft | 248 kts | 147° |
| 2026-05-08 14:56 | 27.38845 | 50.23195 | 11963 ft | 260 kts | 146° |
| 2026-05-08 14:56 | 27.37267 | 50.24471 | 11964 ft | 298 kts | 146° |
| 2026-05-08 14:56 | 27.35492 | 50.25909 | 11961 ft | 331 kts | 146° |
| 2026-05-08 14:57 | 27.33579 | 50.27457 | 11953 ft | 344 kts | 146° |
| 2026-05-08 14:57 | 27.31627 | 50.29039 | 11951 ft | 347 kts | 145° |
| 2026-05-08 14:57 | 27.29666 | 50.30631 | 11951 ft | 348 kts | 146° |
| 2026-05-08 14:57 | 27.27540 | 50.32355 | 11952 ft | 348 kts | 146° |
| 2026-05-08 14:58 | 27.20033 | 50.38426 | 11962 ft | 348 kts | 146° |
| 2026-05-08 14:58 | 27.12174 | 50.44752 | 11961 ft | 349 kts | 145° |
| 2026-05-08 14:58 | 27.04294 | 50.51099 | 11888 ft | 349 kts | 145° |
| 2026-05-08 14:58 | 26.95962 | 50.56358 | 11766 ft | 338 kts | 172° |
| 2026-05-08 14:59 | 26.86451 | 50.56829 | 11812 ft | 336 kts | 178° |
| 2026-05-08 14:59 | 26.67413 | 50.57738 | 11888 ft | 332 kts | 178° |
| 2026-05-08 14:59 | 26.58464 | 50.58150 | 10845 ft | 313 kts | 179° |
| 2026-05-08 15:00 | 26.50189 | 50.60407 | 9678 ft | 318 kts | 126° |
| 2026-05-08 15:00 | 26.47571 | 50.69375 | 8231 ft | 310 kts | 124° |
| 2026-05-08 15:00 | 26.41076 | 50.73788 | 7268 ft | 280 kts | 199° |
| 2026-05-08 15:00 | 26.36136 | 50.71913 | 6742 ft | 308 kts | 171° |
| 2026-05-08 15:01 | 26.30316 | 50.81791 | 5625 ft | 292 kts | 109° |
| 2026-05-08 15:01 | 26.27679 | 50.86952 | 4980 ft | 285 kts | 122° |
| 2026-05-08 15:01 | 26.21566 | 50.89522 | 3889 ft | 255 kts | 233° |
| 2026-05-08 15:01 | 26.22410 | 50.83178 | 2992 ft | 211 kts | 298° |
| 2026-05-08 15:02 | 26.22918 | 50.81577 | 2741 ft | 209 kts | 289° |
| 2026-05-08 15:02 | 26.23054 | 50.79973 | 2501 ft | 213 kts | 268° |
| 2026-05-08 15:02 | 26.22463 | 50.78436 | 2263 ft | 223 kts | 241° |
| 2026-05-08 15:02 | 26.21641 | 50.77017 | 2020 ft | 211 kts | 262° |
| 2026-05-08 15:03 | 26.21618 | 50.75482 | 1786 ft | 195 kts | 285° |
| 2026-05-08 15:03 | 26.21827 | 50.73992 | 1552 ft | 194 kts | 285° |
| 2026-05-08 15:03 | 26.22021 | 50.72526 | 1434 ft | 184 kts | 285° |
| 2026-05-08 15:03 | 26.22329 | 50.71250 | 1404 ft | 163 kts | 309° |
| 2026-05-08 15:04 | 26.22942 | 50.70305 | 1439 ft | 142 kts | 311° |
| 2026-05-08 15:04 | 26.23478 | 50.69429 | 1309 ft | 131 kts | 310° |
| 2026-05-08 15:04 | 26.23977 | 50.68596 | 990 ft | 128 kts | 309° |
| 2026-05-08 15:04 | 26.24453 | 50.67795 | 796 ft | 119 kts | 308° |
| 2026-05-08 15:05 | 26.24902 | 50.67038 | 509 ft | 115 kts | 306° |
| 2026-05-08 15:05 | 26.25382 | 50.66302 | 137 ft | 117 kts | 306° |
| 2026-05-08 15:05 | 26.25810 | 50.65565 | 212 ft | 118 kts | 304° |
| 2026-05-08 15:05 | 26.26262 | 50.64770 | 62 ft | 126 kts | 306° |
| 2026-05-08 15:06 | 26.26707 | 50.63991 | 27 ft | 114 kts | 305° |
| 2026-05-08 15:06 | 26.27054 | 50.63414 | 12 ft | 51 kts | 304° |
| 2026-05-08 15:06 | 26.27131 | 50.63290 | 12 ft | 10 kts | 302° |
| 2026-05-08 15:06 | 26.27170 | 50.63221 | 13 ft | 11 kts | 303° |
| 2026-05-08 15:07 | 26.27206 | 50.63142 | 14 ft | 12 kts | 296° |
| 2026-05-08 15:07 | 26.27238 | 50.63051 | 14 ft | 13 kts | 284° |
| 2026-05-08 15:07 | 26.27253 | 50.62945 | 15 ft | 14 kts | 275° |
| 2026-05-08 15:07 | 26.27257 | 50.62830 | 16 ft | 16 kts | 271° |
| 2026-05-08 15:08 | 26.27261 | 50.62695 | 15 ft | 19 kts | 261° |
| 2026-05-08 15:08 | 26.27163 | 50.62603 | 15 ft | 20 kts | 212° |